sensor_id;sensor_type;location;lat;lon;timestamp;noise_LAeq;noise_LA_min;noise_LA_max;noise_LA01;noise_LA95
72276;Laerm;61204;49.980;8.358;2023-12-14T00:01:21;50.38;44.68;58.30;;
72276;Laerm;61204;49.980;8.358;2023-12-14T00:03:47;48.84;43.71;56.18;;
72276;Laerm;61204;49.980;8.358;2023-12-14T00:06:14;49.62;43.64;55.07;;
72276;Laerm;61204;49.980;8.358;2023-12-14T00:08:40;48.91;41.91;57.45;;
72276;Laerm;61204;49.980;8.358;2023-12-14T00:11:08;50.36;44.89;56.12;;
72276;Laerm;61204;49.980;8.358;2023-12-14T00:13:34;51.30;43.15;58.31;;
72276;Laerm;61204;49.980;8.358;2023-12-14T00:16:03;51.37;46.84;57.85;;
72276;Laerm;61204;49.980;8.358;2023-12-14T00:18:31;50.64;46.23;57.58;;
72276;Laerm;61204;49.980;8.358;2023-12-14T00:20:57;49.62;44.27;61.12;;
72276;Laerm;61204;49.980;8.358;2023-12-14T00:23:23;47.71;42.80;56.16;;
72276;Laerm;61204;49.980;8.358;2023-12-14T00:25:51;48.16;42.34;56.58;;
72276;Laerm;61204;49.980;8.358;2023-12-14T00:28:17;52.37;45.79;63.75;;
72276;Laerm;61204;49.980;8.358;2023-12-14T00:30:43;50.93;45.12;58.20;;
72276;Laerm;61204;49.980;8.358;2023-12-14T00:33:09;49.80;45.06;60.62;;
72276;Laerm;61204;49.980;8.358;2023-12-14T00:35:39;50.57;45.40;57.13;;
72276;Laerm;61204;49.980;8.358;2023-12-14T00:38:04;49.01;44.09;62.70;;
72276;Laerm;61204;49.980;8.358;2023-12-14T00:40:30;47.49;43.27;57.27;;
72276;Laerm;61204;49.980;8.358;2023-12-14T00:42:58;45.91;40.15;59.90;;
72276;Laerm;61204;49.980;8.358;2023-12-14T00:45:23;47.93;41.87;54.46;;
72276;Laerm;61204;49.980;8.358;2023-12-14T00:47:49;47.10;40.12;53.58;;
72276;Laerm;61204;49.980;8.358;2023-12-14T00:50:14;46.84;39.31;57.17;;
72276;Laerm;61204;49.980;8.358;2023-12-14T00:52:40;49.13;43.47;54.58;;
72276;Laerm;61204;49.980;8.358;2023-12-14T00:55:06;47.24;40.56;54.87;;
72276;Laerm;61204;49.980;8.358;2023-12-14T00:57:34;47.94;43.66;56.76;;
72276;Laerm;61204;49.980;8.358;2023-12-14T00:59:59;48.82;43.03;56.61;;
72276;Laerm;61204;49.980;8.358;2023-12-14T01:02:25;48.47;43.83;61.48;;
72276;Laerm;61204;49.980;8.358;2023-12-14T01:04:50;48.94;42.98;56.88;;
72276;Laerm;61204;49.980;8.358;2023-12-14T01:07:16;49.15;40.70;58.39;;
72276;Laerm;61204;49.980;8.358;2023-12-14T01:09:41;47.87;41.22;56.00;;
72276;Laerm;61204;49.980;8.358;2023-12-14T01:12:07;49.45;44.78;59.93;;
72276;Laerm;61204;49.980;8.358;2023-12-14T01:14:32;49.07;42.35;58.41;;
72276;Laerm;61204;49.980;8.358;2023-12-14T01:17:00;47.55;39.57;61.06;;
72276;Laerm;61204;49.980;8.358;2023-12-14T01:19:26;49.68;42.26;60.95;;
72276;Laerm;61204;49.980;8.358;2023-12-14T01:21:52;49.05;43.78;57.47;;
72276;Laerm;61204;49.980;8.358;2023-12-14T01:24:20;49.47;42.55;56.24;;
72276;Laerm;61204;49.980;8.358;2023-12-14T01:26:46;50.31;45.29;59.32;;
72276;Laerm;61204;49.980;8.358;2023-12-14T01:29:11;50.16;43.21;60.90;;
72276;Laerm;61204;49.980;8.358;2023-12-14T01:31:37;49.24;42.53;60.05;;
72276;Laerm;61204;49.980;8.358;2023-12-14T01:34:03;49.87;42.74;58.43;;
72276;Laerm;61204;49.980;8.358;2023-12-14T01:36:28;48.67;43.45;60.85;;
72276;Laerm;61204;49.980;8.358;2023-12-14T01:38:54;50.32;44.87;57.19;;
72276;Laerm;61204;49.980;8.358;2023-12-14T01:41:19;49.34;42.38;59.99;;
72276;Laerm;61204;49.980;8.358;2023-12-14T01:43:47;50.38;42.00;66.80;;
72276;Laerm;61204;49.980;8.358;2023-12-14T01:46:13;48.56;43.06;55.56;;
72276;Laerm;61204;49.980;8.358;2023-12-14T01:48:40;54.06;43.48;68.80;;
72276;Laerm;61204;49.980;8.358;2023-12-14T01:51:06;47.73;43.35;58.09;;
72276;Laerm;61204;49.980;8.358;2023-12-14T01:53:31;49.62;43.63;57.28;;
72276;Laerm;61204;49.980;8.358;2023-12-14T01:55:57;49.08;43.46;59.07;;
72276;Laerm;61204;49.980;8.358;2023-12-14T01:58:23;50.77;46.23;55.44;;
72276;Laerm;61204;49.980;8.358;2023-12-14T02:01:26;51.29;45.32;58.68;;
72276;Laerm;61204;49.980;8.358;2023-12-14T02:03:55;49.94;45.00;57.74;;
72276;Laerm;61204;49.980;8.358;2023-12-14T02:06:20;50.14;43.40;58.05;;
72276;Laerm;61204;49.980;8.358;2023-12-14T02:08:46;49.72;44.36;62.71;;
72276;Laerm;61204;49.980;8.358;2023-12-14T02:11:12;50.47;44.41;57.35;;
72276;Laerm;61204;49.980;8.358;2023-12-14T02:13:40;49.33;42.67;59.30;;
72276;Laerm;61204;49.980;8.358;2023-12-14T02:16:06;48.28;43.03;56.66;;
72276;Laerm;61204;49.980;8.358;2023-12-14T02:18:32;51.08;43.74;62.72;;
72276;Laerm;61204;49.980;8.358;2023-12-14T02:20:57;49.59;44.38;60.16;;
72276;Laerm;61204;49.980;8.358;2023-12-14T02:23:23;49.83;44.93;56.45;;
72276;Laerm;61204;49.980;8.358;2023-12-14T02:25:48;51.23;44.81;58.83;;
72276;Laerm;61204;49.980;8.358;2023-12-14T02:28:14;49.42;42.92;56.53;;
72276;Laerm;61204;49.980;8.358;2023-12-14T02:30:39;47.79;42.72;53.71;;
72276;Laerm;61204;49.980;8.358;2023-12-14T02:33:05;47.69;42.11;52.69;;
72276;Laerm;61204;49.980;8.358;2023-12-14T02:35:32;48.51;44.05;54.95;;
72276;Laerm;61204;49.980;8.358;2023-12-14T02:37:58;49.16;45.56;55.20;;
72276;Laerm;61204;49.980;8.358;2023-12-14T02:40:23;49.12;45.07;54.00;;
72276;Laerm;61204;49.980;8.358;2023-12-14T02:42:49;51.15;46.68;58.08;;
72276;Laerm;61204;49.980;8.358;2023-12-14T02:45:14;49.11;44.41;53.88;;
72276;Laerm;61204;49.980;8.358;2023-12-14T02:47:40;50.78;46.33;56.51;;
72276;Laerm;61204;49.980;8.358;2023-12-14T02:50:08;50.23;45.72;54.95;;
72276;Laerm;61204;49.980;8.358;2023-12-14T02:52:34;50.14;43.49;61.98;;
72276;Laerm;61204;49.980;8.358;2023-12-14T02:55:00;47.70;43.51;55.73;;
72276;Laerm;61204;49.980;8.358;2023-12-14T02:57:26;46.52;42.01;50.34;;
72276;Laerm;61204;49.980;8.358;2023-12-14T02:59:51;45.21;40.49;61.89;;
72276;Laerm;61204;49.980;8.358;2023-12-14T03:02:17;46.96;40.75;51.76;;
72276;Laerm;61204;49.980;8.358;2023-12-14T03:04:43;47.66;43.73;52.70;;
72276;Laerm;61204;49.980;8.358;2023-12-14T03:07:11;45.82;41.12;50.36;;
72276;Laerm;61204;49.980;8.358;2023-12-14T03:09:40;47.28;43.43;52.55;;
72276;Laerm;61204;49.980;8.358;2023-12-14T03:12:10;46.91;42.46;52.40;;
72276;Laerm;61204;49.980;8.358;2023-12-14T03:14:36;47.97;43.36;56.25;;
72276;Laerm;61204;49.980;8.358;2023-12-14T03:17:06;47.94;43.63;51.76;;
72276;Laerm;61204;49.980;8.358;2023-12-14T03:19:32;53.09;44.90;67.38;;
72276;Laerm;61204;49.980;8.358;2023-12-14T03:21:59;48.46;44.81;53.38;;
72276;Laerm;61204;49.980;8.358;2023-12-14T03:24:25;48.75;45.18;53.67;;
72276;Laerm;61204;49.980;8.358;2023-12-14T03:26:50;49.30;45.22;53.36;;
72276;Laerm;61204;49.980;8.358;2023-12-14T03:29:18;48.98;45.64;52.97;;
72276;Laerm;61204;49.980;8.358;2023-12-14T03:31:44;48.23;44.55;54.60;;
72276;Laerm;61204;49.980;8.358;2023-12-14T03:34:15;48.63;45.50;52.35;;
72276;Laerm;61204;49.980;8.358;2023-12-14T03:36:40;48.87;45.22;52.01;;
72276;Laerm;61204;49.980;8.358;2023-12-14T03:39:06;50.32;46.47;60.00;;
72276;Laerm;61204;49.980;8.358;2023-12-14T03:41:32;51.07;46.33;55.41;;
72276;Laerm;61204;49.980;8.358;2023-12-14T03:43:58;50.72;46.53;56.86;;
72276;Laerm;61204;49.980;8.358;2023-12-14T03:46:23;52.05;46.27;61.51;;
72276;Laerm;61204;49.980;8.358;2023-12-14T03:48:49;48.68;45.07;52.44;;
72276;Laerm;61204;49.980;8.358;2023-12-14T03:51:20;49.87;45.28;54.94;;
72276;Laerm;61204;49.980;8.358;2023-12-14T03:53:45;50.06;45.84;54.50;;
72276;Laerm;61204;49.980;8.358;2023-12-14T03:56:11;49.97;45.51;55.03;;
72276;Laerm;61204;49.980;8.358;2023-12-14T03:58:37;50.41;45.92;58.96;;
72276;Laerm;61204;49.980;8.358;2023-12-14T04:01:03;48.32;44.31;52.76;;
72276;Laerm;61204;49.980;8.358;2023-12-14T04:03:28;49.99;45.47;54.35;;
72276;Laerm;61204;49.980;8.358;2023-12-14T04:05:54;50.81;46.98;55.02;;
72276;Laerm;61204;49.980;8.358;2023-12-14T04:08:19;52.01;47.28;58.49;;
72276;Laerm;61204;49.980;8.358;2023-12-14T04:10:45;51.07;47.21;55.37;;
72276;Laerm;61204;49.980;8.358;2023-12-14T04:13:11;50.28;47.15;53.84;;
72276;Laerm;61204;49.980;8.358;2023-12-14T04:15:41;50.95;47.68;54.54;;
72276;Laerm;61204;49.980;8.358;2023-12-14T04:18:08;53.39;47.37;63.38;;
72276;Laerm;61204;49.980;8.358;2023-12-14T04:20:34;53.16;49.73;57.44;;
72276;Laerm;61204;49.980;8.358;2023-12-14T04:22:59;54.55;49.51;63.64;;
72276;Laerm;61204;49.980;8.358;2023-12-14T04:25:25;52.17;49.12;57.59;;
72276;Laerm;61204;49.980;8.358;2023-12-14T04:27:52;52.34;49.25;54.91;;
72276;Laerm;61204;49.980;8.358;2023-12-14T04:30:18;53.49;49.41;59.61;;
72276;Laerm;61204;49.980;8.358;2023-12-14T04:32:46;52.33;49.01;57.07;;
72276;Laerm;61204;49.980;8.358;2023-12-14T04:35:13;54.02;48.44;64.96;;
72276;Laerm;61204;49.980;8.358;2023-12-14T04:37:38;51.53;48.09;55.49;;
72276;Laerm;61204;49.980;8.358;2023-12-14T04:40:05;52.27;48.61;58.18;;
72276;Laerm;61204;49.980;8.358;2023-12-14T04:42:31;53.89;49.73;64.82;;
72276;Laerm;61204;49.980;8.358;2023-12-14T04:44:56;54.14;50.53;58.94;;
72276;Laerm;61204;49.980;8.358;2023-12-14T04:47:22;53.98;51.14;57.12;;
72276;Laerm;61204;49.980;8.358;2023-12-14T04:49:47;53.74;50.61;60.73;;
72276;Laerm;61204;49.980;8.358;2023-12-14T04:52:13;53.59;50.53;57.19;;
72276;Laerm;61204;49.980;8.358;2023-12-14T04:54:38;53.70;49.96;57.95;;
72276;Laerm;61204;49.980;8.358;2023-12-14T04:57:08;53.84;50.79;57.62;;
72276;Laerm;61204;49.980;8.358;2023-12-14T04:59:33;54.57;50.42;58.97;;
72276;Laerm;61204;49.980;8.358;2023-12-14T05:01:59;53.73;49.87;58.01;;
72276;Laerm;61204;49.980;8.358;2023-12-14T05:04:27;53.47;49.78;57.95;;
72276;Laerm;61204;49.980;8.358;2023-12-14T05:06:52;54.99;50.82;63.50;;
72276;Laerm;61204;49.980;8.358;2023-12-14T05:09:18;55.19;51.41;58.73;;
72276;Laerm;61204;49.980;8.358;2023-12-14T05:11:43;55.64;52.08;64.20;;
72276;Laerm;61204;49.980;8.358;2023-12-14T05:14:09;55.10;50.73;62.76;;
72276;Laerm;61204;49.980;8.358;2023-12-14T05:16:37;56.34;52.55;62.05;;
72276;Laerm;61204;49.980;8.358;2023-12-14T05:19:03;56.38;52.78;62.10;;
72276;Laerm;61204;49.980;8.358;2023-12-14T05:21:28;56.50;52.82;63.11;;
72276;Laerm;61204;49.980;8.358;2023-12-14T05:23:54;56.88;52.90;63.77;;
72276;Laerm;61204;49.980;8.358;2023-12-14T05:26:19;56.29;53.50;61.80;;
72276;Laerm;61204;49.980;8.358;2023-12-14T05:28:45;56.11;52.93;58.92;;
72276;Laerm;61204;49.980;8.358;2023-12-14T05:31:11;56.55;53.33;59.83;;
72276;Laerm;61204;49.980;8.358;2023-12-14T05:33:38;58.85;55.16;70.39;;
72276;Laerm;61204;49.980;8.358;2023-12-14T05:36:08;57.83;54.61;61.53;;
72276;Laerm;61204;49.980;8.358;2023-12-14T05:38:38;59.38;55.92;63.01;;
72276;Laerm;61204;49.980;8.358;2023-12-14T05:41:04;59.61;56.94;62.70;;
72276;Laerm;61204;49.980;8.358;2023-12-14T05:43:30;58.10;54.89;61.11;;
72276;Laerm;61204;49.980;8.358;2023-12-14T05:45:56;57.56;54.58;62.96;;
72276;Laerm;61204;49.980;8.358;2023-12-14T05:48:21;58.06;55.23;62.65;;
72276;Laerm;61204;49.980;8.358;2023-12-14T05:50:47;59.00;56.24;63.32;;
72276;Laerm;61204;49.980;8.358;2023-12-14T05:53:13;59.72;56.59;62.35;;
72276;Laerm;61204;49.980;8.358;2023-12-14T05:55:38;60.96;58.27;64.18;;
72276;Laerm;61204;49.980;8.358;2023-12-14T05:58:06;61.27;58.04;64.82;;
72276;Laerm;61204;49.980;8.358;2023-12-14T06:00:33;61.87;58.47;65.43;;
72276;Laerm;61204;49.980;8.358;2023-12-14T06:03:01;60.81;57.40;66.28;;
72276;Laerm;61204;49.980;8.358;2023-12-14T06:05:27;59.77;56.83;63.87;;
72276;Laerm;61204;49.980;8.358;2023-12-14T06:07:52;60.23;56.54;63.95;;
72276;Laerm;61204;49.980;8.358;2023-12-14T06:10:19;58.67;55.20;65.83;;
72276;Laerm;61204;49.980;8.358;2023-12-14T06:12:47;60.96;55.78;72.70;;
72276;Laerm;61204;49.980;8.358;2023-12-14T06:15:13;58.52;55.13;62.91;;
72276;Laerm;61204;49.980;8.358;2023-12-14T06:17:41;60.06;56.51;64.87;;
72276;Laerm;61204;49.980;8.358;2023-12-14T06:20:09;59.79;56.23;63.79;;
72276;Laerm;61204;49.980;8.358;2023-12-14T06:22:38;59.53;56.67;63.12;;
72276;Laerm;61204;49.980;8.358;2023-12-14T06:25:05;60.66;57.09;66.48;;
72276;Laerm;61204;49.980;8.358;2023-12-14T06:27:31;60.74;57.62;64.54;;
72276;Laerm;61204;49.980;8.358;2023-12-14T06:29:57;60.55;57.12;66.07;;
72276;Laerm;61204;49.980;8.358;2023-12-14T06:32:22;60.42;57.62;63.85;;
72276;Laerm;61204;49.980;8.358;2023-12-14T06:34:50;60.76;57.05;65.38;;
72276;Laerm;61204;49.980;8.358;2023-12-14T06:37:16;60.22;57.11;64.19;;
72276;Laerm;61204;49.980;8.358;2023-12-14T06:39:42;60.29;56.88;66.33;;
72276;Laerm;61204;49.980;8.358;2023-12-14T06:42:07;62.33;57.57;66.68;;
72276;Laerm;61204;49.980;8.358;2023-12-14T06:44:33;62.33;57.06;67.62;;
72276;Laerm;61204;49.980;8.358;2023-12-14T06:46:59;60.04;56.45;67.20;;
72276;Laerm;61204;49.980;8.358;2023-12-14T06:49:25;59.72;56.38;64.03;;
72276;Laerm;61204;49.980;8.358;2023-12-14T06:51:51;59.89;55.92;65.19;;
72276;Laerm;61204;49.980;8.358;2023-12-14T06:54:17;59.69;56.66;66.18;;
72276;Laerm;61204;49.980;8.358;2023-12-14T06:56:42;60.81;56.97;64.91;;
72276;Laerm;61204;49.980;8.358;2023-12-14T06:59:08;59.66;56.64;62.68;;
72276;Laerm;61204;49.980;8.358;2023-12-14T07:01:34;59.30;55.95;62.06;;
72276;Laerm;61204;49.980;8.358;2023-12-14T07:04:00;59.69;56.91;63.81;;
72276;Laerm;61204;49.980;8.358;2023-12-14T07:06:26;60.13;56.48;64.17;;
72276;Laerm;61204;49.980;8.358;2023-12-14T07:08:51;60.32;56.74;72.27;;
72276;Laerm;61204;49.980;8.358;2023-12-14T07:11:17;60.78;57.08;64.86;;
72276;Laerm;61204;49.980;8.358;2023-12-14T07:13:42;60.43;56.21;64.79;;
72276;Laerm;61204;49.980;8.358;2023-12-14T07:16:10;59.97;56.47;63.19;;
72276;Laerm;61204;49.980;8.358;2023-12-14T07:18:40;59.46;55.91;64.55;;
72276;Laerm;61204;49.980;8.358;2023-12-14T07:21:07;60.11;56.84;64.28;;
72276;Laerm;61204;49.980;8.358;2023-12-14T07:23:36;59.62;56.68;63.73;;
72276;Laerm;61204;49.980;8.358;2023-12-14T07:26:03;59.96;56.94;63.12;;
72276;Laerm;61204;49.980;8.358;2023-12-14T07:28:29;60.03;57.30;62.83;;
72276;Laerm;61204;49.980;8.358;2023-12-14T07:30:54;60.37;57.07;65.23;;
72276;Laerm;61204;49.980;8.358;2023-12-14T07:33:20;61.54;58.12;65.76;;
72276;Laerm;61204;49.980;8.358;2023-12-14T07:35:46;62.15;58.97;67.35;;
72276;Laerm;61204;49.980;8.358;2023-12-14T07:38:13;62.54;59.43;66.13;;
72276;Laerm;61204;49.980;8.358;2023-12-14T07:40:41;61.96;58.39;66.11;;
72276;Laerm;61204;49.980;8.358;2023-12-14T07:43:08;62.88;59.78;69.47;;
72276;Laerm;61204;49.980;8.358;2023-12-14T07:45:34;62.83;59.68;68.47;;
72276;Laerm;61204;49.980;8.358;2023-12-14T07:48:00;61.69;57.89;66.23;;
72276;Laerm;61204;49.980;8.358;2023-12-14T07:50:26;61.20;58.46;65.36;;
72276;Laerm;61204;49.980;8.358;2023-12-14T07:52:52;62.25;59.25;66.77;;
72276;Laerm;61204;49.980;8.358;2023-12-14T07:55:18;61.49;58.64;64.01;;
72276;Laerm;61204;49.980;8.358;2023-12-14T07:57:44;63.01;59.03;67.96;;
72276;Laerm;61204;49.980;8.358;2023-12-14T08:00:11;60.43;55.57;65.45;;
72276;Laerm;61204;49.980;8.358;2023-12-14T08:02:37;59.01;55.60;63.40;;
72276;Laerm;61204;49.980;8.358;2023-12-14T08:05:03;58.76;54.29;76.43;;
72276;Laerm;61204;49.980;8.358;2023-12-14T08:07:32;57.58;53.95;61.86;;
72276;Laerm;61204;49.980;8.358;2023-12-14T08:09:59;57.96;54.17;64.23;;
72276;Laerm;61204;49.980;8.358;2023-12-14T08:12:25;58.72;54.21;71.33;;
72276;Laerm;61204;49.980;8.358;2023-12-14T08:14:51;57.08;53.05;62.93;;
72276;Laerm;61204;49.980;8.358;2023-12-14T08:17:17;58.10;55.23;62.12;;
72276;Laerm;61204;49.980;8.358;2023-12-14T08:19:44;58.55;54.77;63.95;;
72276;Laerm;61204;49.980;8.358;2023-12-14T08:22:11;58.79;55.32;70.52;;
72276;Laerm;61204;49.980;8.358;2023-12-14T08:24:42;58.18;55.24;62.82;;
72276;Laerm;61204;49.980;8.358;2023-12-14T08:27:07;57.85;55.07;67.41;;
72276;Laerm;61204;49.980;8.358;2023-12-14T08:29:33;56.43;53.68;60.15;;
72276;Laerm;61204;49.980;8.358;2023-12-14T08:31:58;56.72;52.98;61.66;;
72276;Laerm;61204;49.980;8.358;2023-12-14T08:34:28;57.14;53.32;63.77;;
72276;Laerm;61204;49.980;8.358;2023-12-14T08:36:54;56.83;53.58;66.21;;
72276;Laerm;61204;49.980;8.358;2023-12-14T08:39:20;56.36;53.21;59.50;;
72276;Laerm;61204;49.980;8.358;2023-12-14T08:41:46;57.77;52.63;68.67;;
72276;Laerm;61204;49.980;8.358;2023-12-14T08:44:15;56.21;52.40;67.44;;
72276;Laerm;61204;49.980;8.358;2023-12-14T08:46:46;55.41;52.08;59.91;;
72276;Laerm;61204;49.980;8.358;2023-12-14T08:49:13;55.77;52.93;63.27;;
72276;Laerm;61204;49.980;8.358;2023-12-14T08:51:42;55.79;52.44;65.51;;
72276;Laerm;61204;49.980;8.358;2023-12-14T08:54:07;55.95;52.17;63.49;;
72276;Laerm;61204;49.980;8.358;2023-12-14T08:56:34;57.31;51.44;82.98;;
72276;Laerm;61204;49.980;8.358;2023-12-14T08:58:59;56.08;51.35;71.77;;
72276;Laerm;61204;49.980;8.358;2023-12-14T09:01:29;54.56;50.68;65.66;;
72276;Laerm;61204;49.980;8.358;2023-12-14T09:03:54;55.48;51.53;61.48;;
72276;Laerm;61204;49.980;8.358;2023-12-14T09:06:20;55.95;50.11;71.21;;
72276;Laerm;61204;49.980;8.358;2023-12-14T09:08:48;53.79;49.47;66.56;;
72276;Laerm;61204;49.980;8.358;2023-12-14T09:11:14;53.66;50.15;59.77;;
72276;Laerm;61204;49.980;8.358;2023-12-14T09:13:40;54.38;50.78;64.94;;
72276;Laerm;61204;49.980;8.358;2023-12-14T09:16:06;55.42;50.17;66.07;;
72276;Laerm;61204;49.980;8.358;2023-12-14T09:18:32;55.12;49.92;68.39;;
72276;Laerm;61204;49.980;8.358;2023-12-14T09:20:58;54.10;50.12;60.84;;
72276;Laerm;61204;49.980;8.358;2023-12-14T09:23:23;53.74;49.47;67.04;;
72276;Laerm;61204;49.980;8.358;2023-12-14T09:25:49;54.42;49.44;62.39;;
72276;Laerm;61204;49.980;8.358;2023-12-14T09:28:15;52.89;48.44;61.65;;
72276;Laerm;61204;49.980;8.358;2023-12-14T09:30:40;52.60;49.01;66.10;;
72276;Laerm;61204;49.980;8.358;2023-12-14T09:33:06;53.45;48.49;70.32;;
72276;Laerm;61204;49.980;8.358;2023-12-14T09:35:34;52.14;48.00;61.27;;
72276;Laerm;61204;49.980;8.358;2023-12-14T09:38:06;55.52;47.12;69.45;;
72276;Laerm;61204;49.980;8.358;2023-12-14T09:40:33;53.53;48.14;64.52;;
72276;Laerm;61204;49.980;8.358;2023-12-14T09:43:00;51.62;47.49;61.54;;
72276;Laerm;61204;49.980;8.358;2023-12-14T09:45:33;54.14;47.61;74.44;;
72276;Laerm;61204;49.980;8.358;2023-12-14T09:48:00;54.03;46.94;66.49;;
72276;Laerm;61204;49.980;8.358;2023-12-14T09:50:26;53.76;47.69;61.87;;
72276;Laerm;61204;49.980;8.358;2023-12-14T09:52:55;53.59;47.07;67.51;;
72276;Laerm;61204;49.980;8.358;2023-12-14T09:55:20;52.09;47.01;63.28;;
72276;Laerm;61204;49.980;8.358;2023-12-14T09:57:46;54.45;46.65;68.10;;
72276;Laerm;61204;49.980;8.358;2023-12-14T10:00:12;55.65;47.78;69.97;;
72276;Laerm;61204;49.980;8.358;2023-12-14T10:02:57;57.67;47.25;75.94;;
72276;Laerm;61204;49.980;8.358;2023-12-14T10:05:23;58.24;47.52;80.30;;
72276;Laerm;61204;49.980;8.358;2023-12-14T10:07:52;57.86;46.72;78.52;;
72276;Laerm;61204;49.980;8.358;2023-12-14T10:10:18;55.75;47.28;75.17;;
72276;Laerm;61204;49.980;8.358;2023-12-14T10:12:54;57.45;48.10;79.41;;
72276;Laerm;61204;49.980;8.358;2023-12-14T10:15:20;62.59;49.64;80.75;;
72276;Laerm;61204;49.980;8.358;2023-12-14T10:17:51;56.38;49.34;76.87;;
72276;Laerm;61204;49.980;8.358;2023-12-14T10:20:23;56.56;49.10;73.63;;
72276;Laerm;61204;49.980;8.358;2023-12-14T10:22:53;60.65;48.27;81.47;;
72276;Laerm;61204;49.980;8.358;2023-12-14T10:25:19;56.20;48.24;75.59;;
72276;Laerm;61204;49.980;8.358;2023-12-14T10:27:51;55.76;48.16;80.42;;
72276;Laerm;61204;49.980;8.358;2023-12-14T10:30:22;60.37;47.53;81.84;;
72276;Laerm;61204;49.980;8.358;2023-12-14T10:32:49;55.87;48.68;76.19;;
72276;Laerm;61204;49.980;8.358;2023-12-14T10:35:16;56.82;50.14;70.60;;
72276;Laerm;61204;49.980;8.358;2023-12-14T10:37:43;57.32;48.99;75.73;;
72276;Laerm;61204;49.980;8.358;2023-12-14T10:40:14;55.69;49.46;71.81;;
72276;Laerm;61204;49.980;8.358;2023-12-14T10:42:44;58.53;49.46;76.30;;
72276;Laerm;61204;49.980;8.358;2023-12-14T10:45:16;58.66;49.97;80.31;;
72276;Laerm;61204;49.980;8.358;2023-12-14T10:47:50;56.41;49.31;76.48;;
72276;Laerm;61204;49.980;8.358;2023-12-14T10:50:18;61.40;49.98;79.33;;
72276;Laerm;61204;49.980;8.358;2023-12-14T10:52:45;58.00;49.42;71.34;;
72276;Laerm;61204;49.980;8.358;2023-12-14T10:55:40;60.06;50.19;78.86;;
72276;Laerm;61204;49.980;8.358;2023-12-14T10:58:09;54.41;48.95;67.56;;
72276;Laerm;61204;49.980;8.358;2023-12-14T11:00:38;56.36;50.71;71.75;;
72276;Laerm;61204;49.980;8.358;2023-12-14T11:03:06;58.71;50.05;78.92;;
72276;Laerm;61204;49.980;8.358;2023-12-14T11:05:34;58.44;50.40;74.61;;
72276;Laerm;61204;49.980;8.358;2023-12-14T11:08:05;53.44;48.58;71.72;;
72276;Laerm;61204;49.980;8.358;2023-12-14T11:10:43;54.56;49.54;69.60;;
72276;Laerm;61204;49.980;8.358;2023-12-14T11:13:17;63.53;49.58;82.10;;
72276;Laerm;61204;49.980;8.358;2023-12-14T11:15:51;56.57;50.04;75.07;;
72276;Laerm;61204;49.980;8.358;2023-12-14T11:23:16;58.08;48.54;75.67;;
72276;Laerm;61204;49.980;8.358;2023-12-14T11:25:43;66.22;49.37;84.01;;
72276;Laerm;61204;49.980;8.358;2023-12-14T11:28:10;60.08;48.29;77.93;;
72276;Laerm;61204;49.980;8.358;2023-12-14T11:30:36;56.61;47.71;73.65;;
72276;Laerm;61204;49.980;8.358;2023-12-14T11:33:03;55.01;48.22;73.19;;
72276;Laerm;61204;49.980;8.358;2023-12-14T11:35:29;57.07;48.13;79.06;;
72276;Laerm;61204;49.980;8.358;2023-12-14T11:37:56;59.33;49.31;78.75;;
72276;Laerm;61204;49.980;8.358;2023-12-14T11:40:24;56.46;49.50;72.34;;
72276;Laerm;61204;49.980;8.358;2023-12-14T11:43:02;56.39;48.08;78.03;;
72276;Laerm;61204;49.980;8.358;2023-12-14T11:45:32;59.19;46.55;78.25;;
72276;Laerm;61204;49.980;8.358;2023-12-14T11:47:58;57.75;48.07;75.66;;
72276;Laerm;61204;49.980;8.358;2023-12-14T11:50:23;54.13;46.50;76.94;;
72276;Laerm;61204;49.980;8.358;2023-12-14T11:52:49;58.68;47.88;76.90;;
72276;Laerm;61204;49.980;8.358;2023-12-14T11:55:17;58.46;49.09;76.21;;
72276;Laerm;61204;49.980;8.358;2023-12-14T11:57:49;53.06;48.11;70.20;;
72276;Laerm;61204;49.980;8.358;2023-12-14T12:00:17;54.04;47.60;70.97;;
72276;Laerm;61204;49.980;8.358;2023-12-14T12:02:42;57.36;49.93;76.76;;
72276;Laerm;61204;49.980;8.358;2023-12-14T12:05:09;56.95;49.19;78.34;;
72276;Laerm;61204;49.980;8.358;2023-12-14T12:07:41;55.49;49.90;69.66;;
72276;Laerm;61204;49.980;8.358;2023-12-14T12:10:10;60.68;48.53;81.86;;
72276;Laerm;61204;49.980;8.358;2023-12-14T12:12:38;65.81;49.54;84.93;;
72276;Laerm;61204;49.980;8.358;2023-12-14T12:15:05;60.87;50.24;81.54;;
72276;Laerm;61204;49.980;8.358;2023-12-14T12:17:30;56.38;49.48;72.31;;
72276;Laerm;61204;49.980;8.358;2023-12-14T12:20:06;66.54;49.24;85.44;;
72276;Laerm;61204;49.980;8.358;2023-12-14T12:22:32;63.87;49.76;84.64;;
72276;Laerm;61204;49.980;8.358;2023-12-14T12:25:00;65.80;50.24;84.97;;
72276;Laerm;61204;49.980;8.358;2023-12-14T12:27:26;56.98;49.62;75.57;;
72276;Laerm;61204;49.980;8.358;2023-12-14T12:29:51;59.20;49.84;77.87;;
72276;Laerm;61204;49.980;8.358;2023-12-14T12:32:19;56.97;50.41;82.98;;
72276;Laerm;61204;49.980;8.358;2023-12-14T12:34:45;61.88;49.90;80.20;;
72276;Laerm;61204;49.980;8.358;2023-12-14T12:37:10;60.09;50.62;79.34;;
72276;Laerm;61204;49.980;8.358;2023-12-14T12:39:36;58.98;49.14;75.07;;
72276;Laerm;61204;49.980;8.358;2023-12-14T12:42:02;53.73;49.39;68.68;;
72276;Laerm;61204;49.980;8.358;2023-12-14T12:44:27;59.28;50.19;75.22;;
72276;Laerm;61204;49.980;8.358;2023-12-14T12:46:53;56.80;50.04;73.16;;
72276;Laerm;61204;49.980;8.358;2023-12-14T12:49:22;55.91;49.63;75.83;;
72276;Laerm;61204;49.980;8.358;2023-12-14T12:51:48;52.62;48.78;63.99;;
72276;Laerm;61204;49.980;8.358;2023-12-14T12:54:16;57.93;49.31;75.57;;
72276;Laerm;61204;49.980;8.358;2023-12-14T12:56:41;58.38;49.38;76.61;;
72276;Laerm;61204;49.980;8.358;2023-12-14T12:59:09;54.04;48.75;69.57;;
72276;Laerm;61204;49.980;8.358;2023-12-14T13:01:34;57.22;49.39;77.13;;
72276;Laerm;61204;49.980;8.358;2023-12-14T13:04:00;54.90;49.75;67.54;;
72276;Laerm;61204;49.980;8.358;2023-12-14T13:06:26;57.08;50.38;73.88;;
72276;Laerm;61204;49.980;8.358;2023-12-14T13:08:54;58.35;50.07;76.22;;
72276;Laerm;61204;49.980;8.358;2023-12-14T13:11:20;55.44;50.49;73.51;;
72276;Laerm;61204;49.980;8.358;2023-12-14T13:13:45;56.52;51.33;72.54;;
72276;Laerm;61204;49.980;8.358;2023-12-14T13:16:11;56.65;50.93;74.24;;
72276;Laerm;61204;49.980;8.358;2023-12-14T13:18:40;61.63;51.09;77.68;;
72276;Laerm;61204;49.980;8.358;2023-12-14T13:21:05;56.80;50.66;75.54;;
72276;Laerm;61204;49.980;8.358;2023-12-14T13:23:31;62.02;49.75;79.78;;
72276;Laerm;61204;49.980;8.358;2023-12-14T13:25:57;59.52;49.94;77.56;;
72276;Laerm;61204;49.980;8.358;2023-12-14T13:28:22;59.83;50.66;80.73;;
72276;Laerm;61204;49.980;8.358;2023-12-14T13:30:48;56.82;50.54;73.57;;
72276;Laerm;61204;49.980;8.358;2023-12-14T13:33:14;56.40;50.15;77.01;;
72276;Laerm;61204;49.980;8.358;2023-12-14T13:35:40;59.30;51.84;77.64;;
72276;Laerm;61204;49.980;8.358;2023-12-14T13:38:08;59.42;50.97;79.59;;
72276;Laerm;61204;49.980;8.358;2023-12-14T13:40:33;67.81;50.52;85.38;;
72276;Laerm;61204;49.980;8.358;2023-12-14T13:42:59;63.48;48.60;80.49;;
72276;Laerm;61204;49.980;8.358;2023-12-14T13:45:27;65.22;50.33;85.02;;
72276;Laerm;61204;49.980;8.358;2023-12-14T13:47:54;60.65;48.02;77.78;;